sensor_id;sensor_type;location;lat;lon;timestamp;temperature;humidity
37910;DHT22;23741;49.446;8.754;2024-03-23T00:53:11;15.80;60.80
37910;DHT22;23741;49.446;8.754;2024-03-23T00:55:11;15.80;61.10
37910;DHT22;23741;49.446;8.754;2024-03-23T00:57:12;15.80;61.10
37910;DHT22;23741;49.446;8.754;2024-03-23T00:59:13;15.80;61.00
37910;DHT22;23741;49.446;8.754;2024-03-23T01:01:14;15.80;61.30
37910;DHT22;23741;49.446;8.754;2024-03-23T01:03:15;15.80;60.90
37910;DHT22;23741;49.446;8.754;2024-03-23T01:05:16;15.80;61.10
37910;DHT22;23741;49.446;8.754;2024-03-23T01:07:17;15.80;61.00
37910;DHT22;23741;49.446;8.754;2024-03-23T01:09:18;15.80;61.20
37910;DHT22;23741;49.446;8.754;2024-03-23T01:11:19;15.80;60.90
37910;DHT22;23741;49.446;8.754;2024-03-23T01:13:19;15.80;61.00
37910;DHT22;23741;49.446;8.754;2024-03-23T01:15:23;15.80;61.00
37910;DHT22;23741;49.446;8.754;2024-03-23T01:17:23;15.80;61.20
37910;DHT22;23741;49.446;8.754;2024-03-23T01:19:24;15.80;61.20
37910;DHT22;23741;49.446;8.754;2024-03-23T01:21:25;15.80;61.00
37910;DHT22;23741;49.446;8.754;2024-03-23T01:23:26;15.80;61.20
37910;DHT22;23741;49.446;8.754;2024-03-23T01:25:28;15.80;61.30
37910;DHT22;23741;49.446;8.754;2024-03-23T01:27:29;15.70;61.10
37910;DHT22;23741;49.446;8.754;2024-03-23T01:29:30;15.70;61.20
37910;DHT22;23741;49.446;8.754;2024-03-23T01:31:30;15.70;61.00
37910;DHT22;23741;49.446;8.754;2024-03-23T01:33:32;15.70;60.90
37910;DHT22;23741;49.446;8.754;2024-03-23T01:35:35;15.70;61.10
37910;DHT22;23741;49.446;8.754;2024-03-23T01:37:36;15.70;61.40
37910;DHT22;23741;49.446;8.754;2024-03-23T01:39:37;15.70;61.10
37910;DHT22;23741;49.446;8.754;2024-03-23T01:41:37;15.70;61.20
37910;DHT22;23741;49.446;8.754;2024-03-23T01:43:42;15.70;61.30
37910;DHT22;23741;49.446;8.754;2024-03-23T01:45:43;15.70;61.40
37910;DHT22;23741;49.446;8.754;2024-03-23T01:47:44;15.70;61.60
37910;DHT22;23741;49.446;8.754;2024-03-23T01:49:45;15.70;61.50
37910;DHT22;23741;49.446;8.754;2024-03-23T01:51:45;15.70;61.70
37910;DHT22;23741;49.446;8.754;2024-03-23T01:53:46;15.70;61.50
37910;DHT22;23741;49.446;8.754;2024-03-23T01:55:47;15.70;61.60
37910;DHT22;23741;49.446;8.754;2024-03-23T01:57:49;15.80;61.40
37910;DHT22;23741;49.446;8.754;2024-03-23T01:59:50;15.70;61.40
37910;DHT22;23741;49.446;8.754;2024-03-23T02:01:59;15.80;61.60
37910;DHT22;23741;49.446;8.754;2024-03-23T02:04:00;15.80;61.20
37910;DHT22;23741;49.446;8.754;2024-03-23T02:06:01;15.80;61.00
37910;DHT22;23741;49.446;8.754;2024-03-23T02:08:02;15.80;61.00
37910;DHT22;23741;49.446;8.754;2024-03-23T02:10:02;15.80;61.00
37910;DHT22;23741;49.446;8.754;2024-03-23T02:12:04;15.80;61.10
37910;DHT22;23741;49.446;8.754;2024-03-23T02:14:05;15.80;60.90
37910;DHT22;23741;49.446;8.754;2024-03-23T02:16:06;15.80;60.50
37910;DHT22;23741;49.446;8.754;2024-03-23T02:18:07;15.90;60.40
37910;DHT22;23741;49.446;8.754;2024-03-23T02:20:08;15.90;60.30
37910;DHT22;23741;49.446;8.754;2024-03-23T02:22:09;16.00;60.40
37910;DHT22;23741;49.446;8.754;2024-03-23T02:24:12;16.00;60.10
37910;DHT22;23741;49.446;8.754;2024-03-23T02:26:12;16.00;60.00
37910;DHT22;23741;49.446;8.754;2024-03-23T02:28:14;16.00;60.00
37910;DHT22;23741;49.446;8.754;2024-03-23T02:30:15;16.00;59.80
37910;DHT22;23741;49.446;8.754;2024-03-23T02:32:16;16.00;59.90
37910;DHT22;23741;49.446;8.754;2024-03-23T02:34:17;16.00;59.90
37910;DHT22;23741;49.446;8.754;2024-03-23T02:36:17;16.10;59.90
37910;DHT22;23741;49.446;8.754;2024-03-23T02:38:18;16.10;59.80
37910;DHT22;23741;49.446;8.754;2024-03-23T02:40:19;16.10;59.70
37910;DHT22;23741;49.446;8.754;2024-03-23T02:42:20;16.10;59.70
37910;DHT22;23741;49.446;8.754;2024-03-23T02:44:21;16.20;59.70
37910;DHT22;23741;49.446;8.754;2024-03-23T02:46:22;16.20;59.60
37910;DHT22;23741;49.446;8.754;2024-03-23T02:48:23;16.20;59.60
37910;DHT22;23741;49.446;8.754;2024-03-23T02:50:24;16.20;59.60
37910;DHT22;23741;49.446;8.754;2024-03-23T02:52:25;16.20;59.40
37910;DHT22;23741;49.446;8.754;2024-03-23T02:54:26;16.30;59.50
37910;DHT22;23741;49.446;8.754;2024-03-23T02:56:27;16.30;59.50
37910;DHT22;23741;49.446;8.754;2024-03-23T02:58:27;16.30;59.40
37910;DHT22;23741;49.446;8.754;2024-03-23T03:00:28;16.30;59.40
37910;DHT22;23741;49.446;8.754;2024-03-23T03:02:29;16.30;59.40
37910;DHT22;23741;49.446;8.754;2024-03-23T03:04:30;16.30;59.30
37910;DHT22;23741;49.446;8.754;2024-03-23T03:06:31;16.30;59.40
37910;DHT22;23741;49.446;8.754;2024-03-23T03:08:32;16.30;59.40
37910;DHT22;23741;49.446;8.754;2024-03-23T03:10:33;16.30;59.40
37910;DHT22;23741;49.446;8.754;2024-03-23T03:12:37;16.30;59.30
37910;DHT22;23741;49.446;8.754;2024-03-23T03:14:38;16.30;59.40
37910;DHT22;23741;49.446;8.754;2024-03-23T03:16:40;16.30;59.40
37910;DHT22;23741;49.446;8.754;2024-03-23T03:18:41;16.40;59.40
37910;DHT22;23741;49.446;8.754;2024-03-23T03:20:42;16.40;59.40
37910;DHT22;23741;49.446;8.754;2024-03-23T03:22:43;16.40;59.40
37910;DHT22;23741;49.446;8.754;2024-03-23T03:24:44;16.40;59.50
37910;DHT22;23741;49.446;8.754;2024-03-23T03:26:45;16.40;59.40
37910;DHT22;23741;49.446;8.754;2024-03-23T03:28:45;16.40;60.10
37910;DHT22;23741;49.446;8.754;2024-03-23T03:30:49;16.30;59.40
37910;DHT22;23741;49.446;8.754;2024-03-23T03:32:51;16.30;59.50
37910;DHT22;23741;49.446;8.754;2024-03-23T03:34:51;16.40;59.40
37910;DHT22;23741;49.446;8.754;2024-03-23T03:36:52;16.40;59.30
37910;DHT22;23741;49.446;8.754;2024-03-23T03:38:53;16.40;59.30
37910;DHT22;23741;49.446;8.754;2024-03-23T03:40:54;16.40;59.30
37910;DHT22;23741;49.446;8.754;2024-03-23T03:42:55;16.40;59.40
37910;DHT22;23741;49.446;8.754;2024-03-23T03:44:55;16.30;59.40
37910;DHT22;23741;49.446;8.754;2024-03-23T03:46:56;16.40;59.50
37910;DHT22;23741;49.446;8.754;2024-03-23T03:48:57;16.30;59.50
37910;DHT22;23741;49.446;8.754;2024-03-23T03:50:58;16.40;59.50
37910;DHT22;23741;49.446;8.754;2024-03-23T03:52:59;16.30;59.50
37910;DHT22;23741;49.446;8.754;2024-03-23T03:55:02;16.30;59.50
37910;DHT22;23741;49.446;8.754;2024-03-23T03:57:03;16.30;59.40
37910;DHT22;23741;49.446;8.754;2024-03-23T03:59:05;16.30;59.40
37910;DHT22;23741;49.446;8.754;2024-03-23T04:01:05;16.30;59.50
37910;DHT22;23741;49.446;8.754;2024-03-23T04:03:06;16.30;59.50
37910;DHT22;23741;49.446;8.754;2024-03-23T04:05:07;16.30;59.50
37910;DHT22;23741;49.446;8.754;2024-03-23T04:07:08;16.30;59.50
37910;DHT22;23741;49.446;8.754;2024-03-23T04:09:09;16.20;59.50
37910;DHT22;23741;49.446;8.754;2024-03-23T04:11:10;16.30;59.70
37910;DHT22;23741;49.446;8.754;2024-03-23T04:13:14;16.30;59.70
37910;DHT22;23741;49.446;8.754;2024-03-23T04:15:15;16.20;59.50
37910;DHT22;23741;49.446;8.754;2024-03-23T04:17:16;16.30;59.50
37910;DHT22;23741;49.446;8.754;2024-03-23T04:19:17;16.30;59.70
37910;DHT22;23741;49.446;8.754;2024-03-23T04:21:17;16.20;59.60
37910;DHT22;23741;49.446;8.754;2024-03-23T04:23:18;16.20;59.60
37910;DHT22;23741;49.446;8.754;2024-03-23T04:25:19;16.20;59.70
37910;DHT22;23741;49.446;8.754;2024-03-23T04:27:20;16.20;59.50
37910;DHT22;23741;49.446;8.754;2024-03-23T04:29:21;16.20;60.10
37910;DHT22;23741;49.446;8.754;2024-03-23T04:31:22;16.20;59.50
37910;DHT22;23741;49.446;8.754;2024-03-23T04:33:22;16.20;59.50
37910;DHT22;23741;49.446;8.754;2024-03-23T04:35:23;16.20;59.40
37910;DHT22;23741;49.446;8.754;2024-03-23T04:37:26;16.20;59.40
37910;DHT22;23741;49.446;8.754;2024-03-23T04:39:26;16.20;59.30
37910;DHT22;23741;49.446;8.754;2024-03-23T04:41:27;16.10;59.20
37910;DHT22;23741;49.446;8.754;2024-03-23T04:43:28;16.10;59.40
37910;DHT22;23741;49.446;8.754;2024-03-23T04:45:29;16.10;59.50
37910;DHT22;23741;49.446;8.754;2024-03-23T04:47:30;16.10;59.50
37910;DHT22;23741;49.446;8.754;2024-03-23T04:49:31;16.10;59.40
37910;DHT22;23741;49.446;8.754;2024-03-23T04:51:35;16.10;59.40
37910;DHT22;23741;49.446;8.754;2024-03-23T04:53:37;16.10;59.60
37910;DHT22;23741;49.446;8.754;2024-03-23T04:55:38;16.10;59.50
37910;DHT22;23741;49.446;8.754;2024-03-23T04:57:39;16.00;59.40
37910;DHT22;23741;49.446;8.754;2024-03-23T04:59:40;16.00;59.40
37910;DHT22;23741;49.446;8.754;2024-03-23T05:01:41;16.00;59.30
37910;DHT22;23741;49.446;8.754;2024-03-23T05:03:43;16.00;59.30
37910;DHT22;23741;49.446;8.754;2024-03-23T05:05:44;16.00;59.30
37910;DHT22;23741;49.446;8.754;2024-03-23T05:07:44;16.00;59.10
37910;DHT22;23741;49.446;8.754;2024-03-23T05:09:45;15.90;59.10
37910;DHT22;23741;49.446;8.754;2024-03-23T05:11:46;15.90;59.20
37910;DHT22;23741;49.446;8.754;2024-03-23T05:13:47;15.90;59.10
37910;DHT22;23741;49.446;8.754;2024-03-23T05:15:52;15.80;59.10
37910;DHT22;23741;49.446;8.754;2024-03-23T05:17:53;15.90;59.40
37910;DHT22;23741;49.446;8.754;2024-03-23T05:19:54;15.80;59.40
37910;DHT22;23741;49.446;8.754;2024-03-23T05:21:55;15.80;59.50
37910;DHT22;23741;49.446;8.754;2024-03-23T05:23:56;15.80;59.40
37910;DHT22;23741;49.446;8.754;2024-03-23T05:25:57;15.80;59.40
37910;DHT22;23741;49.446;8.754;2024-03-23T05:27:58;15.70;59.60
37910;DHT22;23741;49.446;8.754;2024-03-23T05:29:58;15.70;59.70
37910;DHT22;23741;49.446;8.754;2024-03-23T05:31:59;15.70;59.80
37910;DHT22;23741;49.446;8.754;2024-03-23T05:34:00;15.70;60.00
37910;DHT22;23741;49.446;8.754;2024-03-23T05:36:01;15.70;59.80
37910;DHT22;23741;49.446;8.754;2024-03-23T05:38:02;15.70;60.00
37910;DHT22;23741;49.446;8.754;2024-03-23T05:40:03;15.70;60.10
37910;DHT22;23741;49.446;8.754;2024-03-23T05:42:04;15.60;59.80
37910;DHT22;23741;49.446;8.754;2024-03-23T05:44:05;15.60;59.80
37910;DHT22;23741;49.446;8.754;2024-03-23T05:46:06;15.60;59.80
37910;DHT22;23741;49.446;8.754;2024-03-23T05:48:08;15.50;59.70
37910;DHT22;23741;49.446;8.754;2024-03-23T05:50:09;15.60;59.70
37910;DHT22;23741;49.446;8.754;2024-03-23T05:52:11;15.50;60.50
37910;DHT22;23741;49.446;8.754;2024-03-23T05:54:12;15.40;59.20
37910;DHT22;23741;49.446;8.754;2024-03-23T05:56:13;15.40;59.30
37910;DHT22;23741;49.446;8.754;2024-03-23T05:58:17;15.30;59.20
37910;DHT22;23741;49.446;8.754;2024-03-23T06:00:18;15.20;58.90
37910;DHT22;23741;49.446;8.754;2024-03-23T06:02:19;15.10;58.70
37910;DHT22;23741;49.446;8.754;2024-03-23T06:04:19;15.00;58.60
37910;DHT22;23741;49.446;8.754;2024-03-23T06:06:21;15.00;58.80
37910;DHT22;23741;49.446;8.754;2024-03-23T06:08:23;14.90;58.80
37910;DHT22;23741;49.446;8.754;2024-03-23T06:10:24;14.80;58.90
37910;DHT22;23741;49.446;8.754;2024-03-23T06:12:25;14.70;59.00
37910;DHT22;23741;49.446;8.754;2024-03-23T06:14:26;14.70;58.90
37910;DHT22;23741;49.446;8.754;2024-03-23T06:16:27;14.60;58.90
37910;DHT22;23741;49.446;8.754;2024-03-23T06:18:28;14.50;58.80
37910;DHT22;23741;49.446;8.754;2024-03-23T06:20:29;14.50;58.90
37910;DHT22;23741;49.446;8.754;2024-03-23T06:22:30;14.40;59.00
37910;DHT22;23741;49.446;8.754;2024-03-23T06:24:30;14.30;59.00
37910;DHT22;23741;49.446;8.754;2024-03-23T06:26:31;14.30;59.00
37910;DHT22;23741;49.446;8.754;2024-03-23T06:28:32;14.20;58.90
37910;DHT22;23741;49.446;8.754;2024-03-23T06:30:33;14.10;58.80
37910;DHT22;23741;49.446;8.754;2024-03-23T06:32:34;14.10;58.90
37910;DHT22;23741;49.446;8.754;2024-03-23T06:34:34;14.00;59.10
37910;DHT22;23741;49.446;8.754;2024-03-23T06:36:35;13.90;59.40
37910;DHT22;23741;49.446;8.754;2024-03-23T06:38:39;13.90;60.00
37910;DHT22;23741;49.446;8.754;2024-03-23T06:40:39;13.80;59.90
37910;DHT22;23741;49.446;8.754;2024-03-23T06:42:40;13.80;59.90
37910;DHT22;23741;49.446;8.754;2024-03-23T06:44:41;13.80;59.60
37910;DHT22;23741;49.446;8.754;2024-03-23T06:46:42;13.70;59.60
37910;DHT22;23741;49.446;8.754;2024-03-23T06:48:44;13.70;59.90
37910;DHT22;23741;49.446;8.754;2024-03-23T06:50:45;13.70;59.90
37910;DHT22;23741;49.446;8.754;2024-03-23T06:52:46;13.60;59.90
37910;DHT22;23741;49.446;8.754;2024-03-23T06:54:47;13.60;60.00
37910;DHT22;23741;49.446;8.754;2024-03-23T06:56:48;13.60;60.00
37910;DHT22;23741;49.446;8.754;2024-03-23T06:58:49;13.60;60.00
37910;DHT22;23741;49.446;8.754;2024-03-23T07:00:50;13.60;60.20
37910;DHT22;23741;49.446;8.754;2024-03-23T07:02:51;13.60;60.50
37910;DHT22;23741;49.446;8.754;2024-03-23T07:04:52;13.50;60.70
37910;DHT22;23741;49.446;8.754;2024-03-23T07:06:53;13.60;61.10
37910;DHT22;23741;49.446;8.754;2024-03-23T07:08:53;13.60;60.90
37910;DHT22;23741;49.446;8.754;2024-03-23T07:10:55;13.60;61.10
37910;DHT22;23741;49.446;8.754;2024-03-23T07:12:55;13.60;60.50
37910;DHT22;23741;49.446;8.754;2024-03-23T07:14:56;13.60;60.70
37910;DHT22;23741;49.446;8.754;2024-03-23T07:16:57;13.60;60.50
37910;DHT22;23741;49.446;8.754;2024-03-23T07:18:58;13.60;60.70
37910;DHT22;23741;49.446;8.754;2024-03-23T07:20:59;13.60;60.70
37910;DHT22;23741;49.446;8.754;2024-03-23T07:23:00;13.60;60.90
37910;DHT22;23741;49.446;8.754;2024-03-23T07:25:01;13.60;61.10
37910;DHT22;23741;49.446;8.754;2024-03-23T07:27:02;13.60;61.10
37910;DHT22;23741;49.446;8.754;2024-03-23T07:29:04;13.60;61.60
37910;DHT22;23741;49.446;8.754;2024-03-23T07:31:08;13.60;60.50
37910;DHT22;23741;49.446;8.754;2024-03-23T07:33:09;13.60;60.50
37910;DHT22;23741;49.446;8.754;2024-03-23T07:35:10;13.60;60.30
37910;DHT22;23741;49.446;8.754;2024-03-23T07:37:11;13.60;60.10
37910;DHT22;23741;49.446;8.754;2024-03-23T07:39:12;13.60;60.00
37910;DHT22;23741;49.446;8.754;2024-03-23T07:41:17;13.50;59.90
37910;DHT22;23741;49.446;8.754;2024-03-23T07:43:18;13.50;60.10
37910;DHT22;23741;49.446;8.754;2024-03-23T07:45:18;13.50;60.20
37910;DHT22;23741;49.446;8.754;2024-03-23T07:47:19;13.50;60.30
37910;DHT22;23741;49.446;8.754;2024-03-23T07:49:20;13.50;59.70
37910;DHT22;23741;49.446;8.754;2024-03-23T07:51:21;13.50;59.60
37910;DHT22;23741;49.446;8.754;2024-03-23T07:53:23;13.40;59.70
37910;DHT22;23741;49.446;8.754;2024-03-23T07:55:24;13.40;59.70
37910;DHT22;23741;49.446;8.754;2024-03-23T07:57:25;13.40;59.50
37910;DHT22;23741;49.446;8.754;2024-03-23T07:59:25;13.40;59.50
37910;DHT22;23741;49.446;8.754;2024-03-23T08:01:26;13.40;59.40
37910;DHT22;23741;49.446;8.754;2024-03-23T08:03:30;13.30;59.10
37910;DHT22;23741;49.446;8.754;2024-03-23T08:05:31;13.30;59.40
37910;DHT22;23741;49.446;8.754;2024-03-23T08:07:32;13.30;59.40
37910;DHT22;23741;49.446;8.754;2024-03-23T08:09:33;13.20;59.40
37910;DHT22;23741;49.446;8.754;2024-03-23T08:11:34;13.20;59.40
37910;DHT22;23741;49.446;8.754;2024-03-23T08:13:39;13.20;60.10
37910;DHT22;23741;49.446;8.754;2024-03-23T08:15:40;13.20;59.70
37910;DHT22;23741;49.446;8.754;2024-03-23T08:17:41;13.20;59.70
37910;DHT22;23741;49.446;8.754;2024-03-23T08:19:42;13.20;59.70
37910;DHT22;23741;49.446;8.754;2024-03-23T08:21:43;13.20;59.10
37910;DHT22;23741;49.446;8.754;2024-03-23T08:23:44;13.20;59.10
37910;DHT22;23741;49.446;8.754;2024-03-23T08:25:44;13.10;59.30
37910;DHT22;23741;49.446;8.754;2024-03-23T08:27:45;13.10;59.60
37910;DHT22;23741;49.446;8.754;2024-03-23T08:29:46;13.20;59.90
37910;DHT22;23741;49.446;8.754;2024-03-23T08:31:47;13.20;60.50
37910;DHT22;23741;49.446;8.754;2024-03-23T08:33:48;13.20;59.80
37910;DHT22;23741;49.446;8.754;2024-03-23T08:35:55;13.20;60.10
37910;DHT22;23741;49.446;8.754;2024-03-23T08:37:56;13.20;60.20
37910;DHT22;23741;49.446;8.754;2024-03-23T08:39:57;13.20;60.10
37910;DHT22;23741;49.446;8.754;2024-03-23T08:41:58;13.20;59.70
37910;DHT22;23741;49.446;8.754;2024-03-23T08:43:59;13.20;59.50
37910;DHT22;23741;49.446;8.754;2024-03-23T08:46:03;13.20;59.60
37910;DHT22;23741;49.446;8.754;2024-03-23T08:48:04;13.20;59.40
37910;DHT22;23741;49.446;8.754;2024-03-23T08:50:05;13.20;59.40
37910;DHT22;23741;49.446;8.754;2024-03-23T08:52:07;13.20;59.50
37910;DHT22;23741;49.446;8.754;2024-03-23T08:54:08;13.20;59.30
37910;DHT22;23741;49.446;8.754;2024-03-23T08:56:09;13.20;59.20
37910;DHT22;23741;49.446;8.754;2024-03-23T08:58:11;13.20;59.30
37910;DHT22;23741;49.446;8.754;2024-03-23T09:00:13;13.20;59.00
37910;DHT22;23741;49.446;8.754;2024-03-23T09:02:15;13.20;59.20
37910;DHT22;23741;49.446;8.754;2024-03-23T09:04:16;13.30;59.40
37910;DHT22;23741;49.446;8.754;2024-03-23T09:06:16;13.30;59.50
37910;DHT22;23741;49.446;8.754;2024-03-23T09:08:18;13.30;59.60
37910;DHT22;23741;49.446;8.754;2024-03-23T09:10:19;13.40;59.70
37910;DHT22;23741;49.446;8.754;2024-03-23T09:12:19;13.40;59.60
37910;DHT22;23741;49.446;8.754;2024-03-23T09:14:21;13.50;59.50
37910;DHT22;23741;49.446;8.754;2024-03-23T09:16:22;13.50;59.60
37910;DHT22;23741;49.446;8.754;2024-03-23T09:18:23;13.50;59.50
37910;DHT22;23741;49.446;8.754;2024-03-23T09:20:24;13.60;59.50
37910;DHT22;23741;49.446;8.754;2024-03-23T09:22:25;13.60;59.80
37910;DHT22;23741;49.446;8.754;2024-03-23T09:24:26;13.70;59.30
37910;DHT22;23741;49.446;8.754;2024-03-23T09:26:27;13.70;59.00
37910;DHT22;23741;49.446;8.754;2024-03-23T09:28:30;13.70;58.70
37910;DHT22;23741;49.446;8.754;2024-03-23T09:30:32;13.70;58.90
37910;DHT22;23741;49.446;8.754;2024-03-23T09:32:33;13.70;58.70
37910;DHT22;23741;49.446;8.754;2024-03-23T09:34:34;13.70;58.60
37910;DHT22;23741;49.446;8.754;2024-03-23T09:36:34;13.70;58.50
37910;DHT22;23741;49.446;8.754;2024-03-23T09:38:35;13.80;58.60
37910;DHT22;23741;49.446;8.754;2024-03-23T09:40:40;13.80;58.50
37910;DHT22;23741;49.446;8.754;2024-03-23T09:42:42;13.80;58.40
37910;DHT22;23741;49.446;8.754;2024-03-23T09:44:48;13.80;58.10
37910;DHT22;23741;49.446;8.754;2024-03-23T09:46:51;13.80;58.20
37910;DHT22;23741;49.446;8.754;2024-03-23T09:48:52;13.90;57.80
37910;DHT22;23741;49.446;8.754;2024-03-23T09:50:53;13.90;58.00
37910;DHT22;23741;49.446;8.754;2024-03-23T09:52:54;13.90;58.20
37910;DHT22;23741;49.446;8.754;2024-03-23T09:54:55;13.90;58.00
37910;DHT22;23741;49.446;8.754;2024-03-23T09:56:55;13.80;58.10
37910;DHT22;23741;49.446;8.754;2024-03-23T09:59:00;13.80;58.40
37910;DHT22;23741;49.446;8.754;2024-03-23T10:01:01;13.90;58.60
37910;DHT22;23741;49.446;8.754;2024-03-23T10:03:02;13.90;58.40
37910;DHT22;23741;49.446;8.754;2024-03-23T10:05:03;13.90;58.50
37910;DHT22;23741;49.446;8.754;2024-03-23T10:07:10;13.90;58.50
37910;DHT22;23741;49.446;8.754;2024-03-23T10:09:16;13.90;58.60
37910;DHT22;23741;49.446;8.754;2024-03-23T10:11:18;13.90;58.60
37910;DHT22;23741;49.446;8.754;2024-03-23T10:13:26;13.90;58.60
37910;DHT22;23741;49.446;8.754;2024-03-23T10:15:27;14.00;58.70
37910;DHT22;23741;49.446;8.754;2024-03-23T10:17:28;14.00;58.30
37910;DHT22;23741;49.446;8.754;2024-03-23T10:19:31;14.00;58.40
37910;DHT22;23741;49.446;8.754;2024-03-23T10:21:32;14.00;58.10
37910;DHT22;23741;49.446;8.754;2024-03-23T10:23:34;14.00;58.20
37910;DHT22;23741;49.446;8.754;2024-03-23T10:25:35;14.00;58.70
37910;DHT22;23741;49.446;8.754;2024-03-23T10:27:35;14.00;58.10
37910;DHT22;23741;49.446;8.754;2024-03-23T10:29:36;14.00;58.10
37910;DHT22;23741;49.446;8.754;2024-03-23T10:31:37;14.00;58.10
37910;DHT22;23741;49.446;8.754;2024-03-23T10:33:47;14.00;58.10
37910;DHT22;23741;49.446;8.754;2024-03-23T10:35:49;14.00;58.20
37910;DHT22;23741;49.446;8.754;2024-03-23T10:37:50;14.00;57.70
37910;DHT22;23741;49.446;8.754;2024-03-23T10:39:52;14.10;57.50
37910;DHT22;23741;49.446;8.754;2024-03-23T10:41:53;14.00;57.50
37910;DHT22;23741;49.446;8.754;2024-03-23T10:43:53;14.10;57.80
37910;DHT22;23741;49.446;8.754;2024-03-23T10:45:56;14.10;57.70
37910;DHT22;23741;49.446;8.754;2024-03-23T10:47:57;14.10;57.60
37910;DHT22;23741;49.446;8.754;2024-03-23T10:49:58;14.10;57.30
37910;DHT22;23741;49.446;8.754;2024-03-23T10:52:03;14.10;57.30
37910;DHT22;23741;49.446;8.754;2024-03-23T10:54:04;14.20;57.50
37910;DHT22;23741;49.446;8.754;2024-03-23T10:56:06;14.20;57.20
37910;DHT22;23741;49.446;8.754;2024-03-23T10:58:08;14.20;57.20
37910;DHT22;23741;49.446;8.754;2024-03-23T11:00:09;14.20;56.70
37910;DHT22;23741;49.446;8.754;2024-03-23T11:02:21;14.20;56.70
37910;DHT22;23741;49.446;8.754;2024-03-23T11:04:31;14.20;56.50
37910;DHT22;23741;49.446;8.754;2024-03-23T11:06:33;14.20;56.70
37910;DHT22;23741;49.446;8.754;2024-03-23T11:08:38;14.30;56.90
37910;DHT22;23741;49.446;8.754;2024-03-23T11:10:39;14.30;57.10
37910;DHT22;23741;49.446;8.754;2024-03-23T11:12:41;14.40;57.10
37910;DHT22;23741;49.446;8.754;2024-03-23T11:14:41;14.40;56.40
37910;DHT22;23741;49.446;8.754;2024-03-23T11:16:42;14.50;55.90
37910;DHT22;23741;49.446;8.754;2024-03-23T11:18:43;14.50;56.40
37910;DHT22;23741;49.446;8.754;2024-03-23T11:20:45;14.50;55.50
37910;DHT22;23741;49.446;8.754;2024-03-23T11:22:46;14.60;55.80
37910;DHT22;23741;49.446;8.754;2024-03-23T11:24:53;14.60;55.60
37910;DHT22;23741;49.446;8.754;2024-03-23T11:26:54;14.60;55.80
37910;DHT22;23741;49.446;8.754;2024-03-23T11:29:10;14.60;55.50
37910;DHT22;23741;49.446;8.754;2024-03-23T11:31:11;14.70;55.30
37910;DHT22;23741;49.446;8.754;2024-03-23T11:33:12;14.70;55.20
37910;DHT22;23741;49.446;8.754;2024-03-23T11:37:26;14.80;54.90
37910;DHT22;23741;49.446;8.754;2024-03-23T11:39:27;14.80;55.00
37910;DHT22;23741;49.446;8.754;2024-03-23T11:41:28;14.90;54.60
37910;DHT22;23741;49.446;8.754;2024-03-23T11:43:30;15.00;54.40
37910;DHT22;23741;49.446;8.754;2024-03-23T11:45:49;15.10;54.60
37910;DHT22;23741;49.446;8.754;2024-03-23T11:48:05;15.20;51.70
37910;DHT22;23741;49.446;8.754;2024-03-23T11:50:06;15.40;53.70
37910;DHT22;23741;49.446;8.754;2024-03-23T11:52:07;15.50;53.30
37910;DHT22;23741;49.446;8.754;2024-03-23T11:54:08;15.60;52.80
37910;DHT22;23741;49.446;8.754;2024-03-23T11:56:09;15.70;54.20
37910;DHT22;23741;49.446;8.754;2024-03-23T11:58:10;15.80;53.60
37910;DHT22;23741;49.446;8.754;2024-03-23T12:00:21;15.90;53.00
37910;DHT22;23741;49.446;8.754;2024-03-23T12:02:22;16.00;53.00
37910;DHT22;23741;49.446;8.754;2024-03-23T12:04:28;16.10;52.30
37910;DHT22;23741;49.446;8.754;2024-03-23T12:06:29;16.10;52.10
37910;DHT22;23741;49.446;8.754;2024-03-23T12:08:31;16.20;52.20
37910;DHT22;23741;49.446;8.754;2024-03-23T12:10:33;16.20;52.30
37910;DHT22;23741;49.446;8.754;2024-03-23T12:12:34;16.20;52.30
37910;DHT22;23741;49.446;8.754;2024-03-23T12:14:35;16.10;51.50
37910;DHT22;23741;49.446;8.754;2024-03-23T12:16:36;16.00;52.40
37910;DHT22;23741;49.446;8.754;2024-03-23T12:18:37;16.00;52.60
37910;DHT22;23741;49.446;8.754;2024-03-23T12:20:38;15.80;52.70
37910;DHT22;23741;49.446;8.754;2024-03-23T12:22:39;15.70;52.90
37910;DHT22;23741;49.446;8.754;2024-03-23T12:24:40;15.60;53.00
37910;DHT22;23741;49.446;8.754;2024-03-23T12:26:45;15.40;53.20
37910;DHT22;23741;49.446;8.754;2024-03-23T12:28:50;15.30;53.60
37910;DHT22;23741;49.446;8.754;2024-03-23T12:30:51;15.10;54.10
37910;DHT22;23741;49.446;8.754;2024-03-23T12:32:55;15.00;54.40
37910;DHT22;23741;49.446;8.754;2024-03-23T12:34:56;14.90;54.60
37910;DHT22;23741;49.446;8.754;2024-03-23T12:36:57;14.80;55.00
37910;DHT22;23741;49.446;8.754;2024-03-23T12:38:58;14.60;55.30
37910;DHT22;23741;49.446;8.754;2024-03-23T12:40:58;14.50;55.30
37910;DHT22;23741;49.446;8.754;2024-03-23T12:43:01;14.40;55.60
37910;DHT22;23741;49.446;8.754;2024-03-23T12:45:01;14.40;55.80
37910;DHT22;23741;49.446;8.754;2024-03-23T12:47:03;14.30;56.20
37910;DHT22;23741;49.446;8.754;2024-03-23T12:49:04;14.20;56.30
37910;DHT22;23741;49.446;8.754;2024-03-23T12:51:06;14.20;56.60
37910;DHT22;23741;49.446;8.754;2024-03-23T12:53:06;14.10;56.90
37910;DHT22;23741;49.446;8.754;2024-03-23T12:55:07;14.10;57.10
37910;DHT22;23741;49.446;8.754;2024-03-23T12:57:08;14.00;57.30
37910;DHT22;23741;49.446;8.754;2024-03-23T12:59:09;14.00;57.50
37910;DHT22;23741;49.446;8.754;2024-03-23T13:01:10;14.00;57.60
37910;DHT22;23741;49.446;8.754;2024-03-23T13:03:13;13.90;57.90
37910;DHT22;23741;49.446;8.754;2024-03-23T13:05:14;14.00;58.30
37910;DHT22;23741;49.446;8.754;2024-03-23T13:07:15;14.00;58.20
37910;DHT22;23741;49.446;8.754;2024-03-23T13:09:16;14.00;58.10
37910;DHT22;23741;49.446;8.754;2024-03-23T13:11:17;14.00;58.20
37910;DHT22;23741;49.446;8.754;2024-03-23T13:13:18;14.00;58.10
37910;DHT22;23741;49.446;8.754;2024-03-23T13:15:19;14.00;58.10
37910;DHT22;23741;49.446;8.754;2024-03-23T13:17:21;14.00;58.20
37910;DHT22;23741;49.446;8.754;2024-03-23T13:19:22;13.90;58.30
37910;DHT22;23741;49.446;8.754;2024-03-23T13:21:27;14.00;58.90
37910;DHT22;23741;49.446;8.754;2024-03-23T13:23:28;13.90;57.00
37910;DHT22;23741;49.446;8.754;2024-03-23T13:25:29;13.90;57.10
37910;DHT22;23741;49.446;8.754;2024-03-23T13:27:30;13.90;57.10
37910;DHT22;23741;49.446;8.754;2024-03-23T13:29:30;13.80;57.40
37910;DHT22;23741;49.446;8.754;2024-03-23T13:31:31;13.80;57.20
37910;DHT22;23741;49.446;8.754;2024-03-23T13:33:32;13.70;56.90
37910;DHT22;23741;49.446;8.754;2024-03-23T13:35:33;13.60;56.80
37910;DHT22;23741;49.446;8.754;2024-03-23T13:37:34;13.50;56.80
37910;DHT22;23741;49.446;8.754;2024-03-23T13:39:35;13.40;56.80
37910;DHT22;23741;49.446;8.754;2024-03-23T13:41:39;13.40;57.00